Time;durP1;ratioP1;P1;durP2;ratioP2;P2;SDS_P1;SDS_P2;PMS_P1;PMS_P2;Temp;Humidity;BMP_temperature;BMP_pressure;BME280_temperature;BME280_humidity;BME280_pressure;Samples;Min_cycle;Max_cycle;Signal;HPM_P1;HPM_P2
2021/03/05 00:00:50;;;;;;;14.07;4.50;;;1.70;99.90;;;;;;5092271;28;20038;-83
2021/03/05 00:03:16;;;;;;;11.07;4.90;;;1.70;99.90;;;;;;5089454;28;20039;-88
2021/03/05 00:05:43;;;;;;;8.48;5.03;;;1.70;99.90;;;;;;5086644;28;20555;-83
2021/03/05 00:08:10;;;;;;;17.08;4.85;;;1.70;99.90;;;;;;5048800;28;20048;-84
2021/03/05 00:10:39;;;;;;;14.18;4.82;;;1.80;99.90;;;;;;5109629;28;20382;-83
2021/03/05 00:13:05;;;;;;;11.23;4.78;;;1.70;99.90;;;;;;5093395;28;20434;-86
2021/03/05 00:15:34;;;;;;;12.65;3.92;;;1.80;99.90;;;;;;5089931;28;20035;-83
2021/03/05 00:18:00;;;;;;;8.15;4.45;;;1.80;99.90;;;;;;5093582;28;20070;-83
2021/03/05 00:20:28;;;;;;;11.52;4.07;;;1.70;99.90;;;;;;5076512;28;20502;-84
2021/03/05 00:22:54;;;;;;;8.80;4.22;;;1.80;99.90;;;;;;5111735;28;20069;-83
2021/03/05 00:25:21;;;;;;;15.27;4.68;;;1.80;99.90;;;;;;5093449;28;20043;-88
2021/03/05 00:27:47;;;;;;;11.35;4.53;;;1.80;99.90;;;;;;5076379;28;20044;-83
2021/03/05 00:30:14;;;;;;;9.07;3.45;;;1.80;99.90;;;;;;5082509;28;20074;-83
2021/03/05 00:32:40;;;;;;;7.30;2.85;;;1.80;99.90;;;;;;5105642;28;20071;-83
2021/03/05 00:35:09;;;;;;;8.98;2.88;;;1.90;99.90;;;;;;5079647;28;20089;-83
2021/03/05 00:37:35;;;;;;;12.35;2.47;;;1.90;99.90;;;;;;5092626;28;20043;-83
2021/03/05 00:40:03;;;;;;;6.47;2.67;;;1.90;99.90;;;;;;5111220;28;20071;-85
2021/03/05 00:42:29;;;;;;;5.65;2.30;;;1.90;99.90;;;;;;5110583;28;20050;-83
2021/03/05 00:44:54;;;;;;;5.20;2.13;;;1.90;99.90;;;;;;5092171;28;20047;-83
2021/03/05 00:47:20;;;;;;;9.90;2.30;;;1.90;99.90;;;;;;5055522;28;20521;-86
2021/03/05 00:49:46;;;;;;;5.15;2.17;;;1.80;99.90;;;;;;5087565;28;20042;-84
2021/03/05 00:52:12;;;;;;;5.63;2.33;;;1.80;99.90;;;;;;5076250;28;20040;-82
2021/03/05 00:54:37;;;;;;;4.32;2.30;;;1.70;99.90;;;;;;5109452;28;20047;-83
2021/03/05 00:57:03;;;;;;;6.60;2.75;;;1.70;99.90;;;;;;5110700;28;20075;-83
2021/03/05 00:59:30;;;;;;;6.85;2.10;;;1.60;99.90;;;;;;5092299;28;20075;-86
2021/03/05 01:01:56;;;;;;;11.05;2.90;;;1.60;99.90;;;;;;5086169;28;20090;-83
2021/03/05 01:04:22;;;;;;;7.45;2.20;;;1.60;99.90;;;;;;5075485;28;20031;-87
2021/03/05 01:06:47;;;;;;;10.75;2.97;;;1.60;99.90;;;;;;5069190;28;21290;-83
2021/03/05 01:09:13;;;;;;;17.77;5.57;;;1.60;99.90;;;;;;5044412;28;20056;-84
2021/03/05 01:11:39;;;;;;;5.88;2.08;;;1.50;99.90;;;;;;5043089;28;20752;-83
2021/03/05 01:14:05;;;;;;;8.57;2.47;;;1.50;99.90;;;;;;5086180;28;20501;-83
2021/03/05 01:16:31;;;;;;;11.02;1.98;;;1.50;99.90;;;;;;5089574;28;20039;-83
2021/03/05 01:18:57;;;;;;;3.83;1.45;;;1.50;99.90;;;;;;5058824;28;20073;-83
2021/03/05 01:21:24;;;;;;;5.18;1.73;;;1.40;99.90;;;;;;5110247;28;20146;-86
2021/03/05 01:23:50;;;;;;;4.85;1.88;;;1.40;99.90;;;;;;5059009;28;20130;-85
2021/03/05 01:26:16;;;;;;;4.22;1.50;;;1.30;99.90;;;;;;5075367;28;20053;-82
2021/03/05 01:28:45;;;;;;;4.88;1.50;;;1.30;99.90;;;;;;5058076;28;20043;-83
2021/03/05 01:31:15;;;;;;;7.32;1.50;;;1.30;99.90;;;;;;5091028;28;20089;-83
2021/03/05 01:33:42;;;;;;;7.53;1.35;;;1.30;99.90;;;;;;5091320;28;20051;-82
2021/03/05 01:36:09;;;;;;;6.38;1.50;;;1.30;99.90;;;;;;5092187;28;20065;-82
2021/03/05 01:38:35;;;;;;;1.95;1.33;;;1.30;99.90;;;;;;5086722;28;20028;-83
2021/03/05 01:41:02;;;;;;;4.05;1.33;;;1.30;99.90;;;;;;5100688;28;20059;-83
2021/03/05 01:43:33;;;;;;;1.50;1.40;;;1.30;99.90;;;;;;5091325;28;20039;-86
2021/03/05 01:46:00;;;;;;;3.58;1.00;;;1.30;99.90;;;;;;5109646;28;20044;-83
2021/03/05 01:48:26;;;;;;;2.92;0.70;;;1.30;99.90;;;;;;5092031;28;20049;-87
2021/03/05 01:51:14;;;;;;;9.32;1.48;;;1.30;99.90;;;;;;5091958;28;20048;-83
2021/03/05 01:53:41;;;;;;;10.20;1.20;;;1.30;99.90;;;;;;5109151;28;20036;-83
2021/03/05 01:56:08;;;;;;;2.78;0.82;;;1.20;99.90;;;;;;5091152;28;20097;-84
2021/03/05 01:58:35;;;;;;;4.00;0.80;;;1.30;99.90;;;;;;5074595;28;20050;-83
2021/03/05 02:01:08;;;;;;;2.45;0.82;;;1.40;99.90;;;;;;5107554;28;20048;-83
2021/03/05 02:03:34;;;;;;;5.80;1.10;;;1.40;99.90;;;;;;5085375;28;20066;-84
2021/03/05 02:06:01;;;;;;;7.15;0.95;;;1.50;99.90;;;;;;5108829;28;20126;-82
2021/03/05 02:08:27;;;;;;;3.45;0.82;;;1.50;99.90;;;;;;5109094;28;20515;-87
2021/03/05 02:10:53;;;;;;;16.63;1.60;;;1.50;99.90;;;;;;5094847;28;20120;-85
2021/03/05 02:13:19;;;;;;;8.18;1.77;;;1.60;99.90;;;;;;5110103;28;20051;-83
2021/03/05 02:15:47;;;;;;;7.50;1.80;;;1.60;99.90;;;;;;5107886;28;20084;-83
2021/03/05 02:18:21;;;;;;;6.85;1.40;;;1.60;99.90;;;;;;5090023;28;20546;-83
2021/03/05 02:21:05;;;;;;;7.47;1.08;;;1.60;99.90;;;;;;5084986;28;20028;-83
2021/03/05 02:24:08;;;;;;;7.55;1.00;;;1.50;99.90;;;;;;5098790;28;20039;-84
2021/03/05 02:26:54;;;;;;;8.10;0.98;;;1.50;99.90;;;;;;5091260;28;20131;-83
2021/03/05 02:29:51;;;;;;;3.70;1.02;;;1.50;99.90;;;;;;5093548;28;20043;-83
2021/03/05 02:32:26;;;;;;;3.70;0.60;;;1.50;99.90;;;;;;5106448;28;20059;-83
2021/03/05 02:34:52;;;;;;;5.53;0.88;;;1.40;99.90;;;;;;5099116;28;20054;-83
2021/03/05 02:37:22;;;;;;;6.35;1.52;;;1.30;99.90;;;;;;5102780;28;20040;-84
2021/03/05 02:39:59;;;;;;;10.43;1.48;;;1.30;99.90;;;;;;5110434;28;20123;-83
2021/03/05 02:42:52;;;;;;;8.73;1.10;;;1.40;99.90;;;;;;5102954;28;20044;-85
2021/03/05 02:45:22;;;;;;;3.47;0.80;;;1.20;99.90;;;;;;5091041;28;20052;-83
2021/03/05 02:47:53;;;;;;;3.63;1.20;;;1.20;99.90;;;;;;5087961;28;20391;-83
2021/03/05 02:50:23;;;;;;;5.70;0.95;;;1.10;99.90;;;;;;5081196;28;20054;-83
2021/03/05 02:52:51;;;;;;;4.75;0.52;;;1.10;99.90;;;;;;5111959;28;20074;-83
2021/03/05 02:55:20;;;;;;;6.25;1.23;;;1.10;99.90;;;;;;5090227;28;20052;-83
2021/03/05 02:57:48;;;;;;;2.88;0.28;;;1.10;99.90;;;;;;5104589;28;20059;-84
2021/03/05 03:00:15;;;;;;;9.43;1.58;;;1.00;99.90;;;;;;5113611;28;20103;-86
2021/03/05 03:02:42;;;;;;;1.23;0.50;;;1.00;99.90;;;;;;5078589;28;20166;-83
2021/03/05 03:05:10;;;;;;;3.90;0.75;;;0.90;99.90;;;;;;5109592;28;20032;-83
2021/03/05 03:07:40;;;;;;;2.45;0.77;;;1.00;99.90;;;;;;5094208;28;20071;-83
2021/03/05 03:10:08;;;;;;;1.13;0.32;;;1.00;99.90;;;;;;5110858;28;20047;-84
2021/03/05 03:12:34;;;;;;;3.25;0.50;;;0.90;99.90;;;;;;5112207;28;20054;-86
2021/03/05 03:15:03;;;;;;;14.35;1.25;;;0.90;99.90;;;;;;5103569;28;20064;-83
2021/03/05 03:17:30;;;;;;;3.95;0.88;;;0.90;99.90;;;;;;5081708;28;20506;-83
2021/03/05 03:19:58;;;;;;;7.55;1.95;;;1.00;99.90;;;;;;5070930;28;20047;-82
2021/03/05 03:22:24;;;;;;;1.75;0.52;;;0.90;99.90;;;;;;5078271;28;20040;-83
2021/03/05 03:24:51;;;;;;;1.67;0.30;;;0.90;99.90;;;;;;5112505;28;20764;-82
2021/03/05 03:27:17;;;;;;;6.25;0.68;;;0.90;99.90;;;;;;5077782;28;20073;-84
2021/03/05 03:29:43;;;;;;;5.97;0.75;;;0.80;99.90;;;;;;5093627;28;20036;-83
2021/03/05 03:32:11;;;;;;;5.80;1.00;;;0.80;99.90;;;;;;5102975;28;20047;-82
2021/03/05 03:34:39;;;;;;;1.15;0.22;;;0.70;99.90;;;;;;5124058;27;20063;-84
2021/03/05 03:37:05;;;;;;;5.68;0.80;;;0.70;99.90;;;;;;5103231;28;20058;-84
2021/03/05 03:39:32;;;;;;;5.57;1.13;;;0.70;99.90;;;;;;5088654;28;20402;-86
2021/03/05 03:42:00;;;;;;;4.05;1.00;;;0.70;99.90;;;;;;5093269;28;20046;-83
2021/03/05 03:44:25;;;;;;;8.85;0.82;;;0.80;99.90;;;;;;5093598;28;20050;-83
2021/03/05 03:46:52;;;;;;;2.08;0.50;;;0.80;99.90;;;;;;5110774;28;20036;-82
2021/03/05 03:49:46;;;;;;;7.63;0.82;;;0.70;99.90;;;;;;5099860;28;20393;-83
2021/03/05 03:52:44;;;;;;;9.43;0.55;;;0.70;99.90;;;;;;5074093;28;20398;-82
2021/03/05 03:55:10;;;;;;;5.20;0.68;;;0.70;99.90;;;;;;5082619;28;20134;-83
2021/03/05 03:57:44;;;;;;;4.68;0.43;;;0.70;99.90;;;;;;5076202;28;20047;-85
2021/03/05 04:00:13;;;;;;;4.20;0.90;;;0.80;99.90;;;;;;5112009;28;20032;-83
2021/03/05 04:02:40;;;;;;;0.30;0.20;;;0.70;99.90;;;;;;5076373;28;20043;-83
2021/03/05 04:05:09;;;;;;;2.83;0.77;;;0.80;99.90;;;;;;5074999;28;20044;-83
2021/03/05 04:07:38;;;;;;;8.63;0.63;;;0.80;99.90;;;;;;5072880;28;20395;-86
2021/03/05 04:10:05;;;;;;;6.25;0.70;;;0.80;99.90;;;;;;5105880;28;20058;-83
2021/03/05 04:12:31;;;;;;;4.95;0.45;;;0.80;99.90;;;;;;5093441;28;20043;-84
2021/03/05 04:14:58;;;;;;;12.80;1.25;;;0.80;99.90;;;;;;5092338;28;20064;-84
2021/03/05 04:17:26;;;;;;;4.25;0.65;;;0.80;99.90;;;;;;5079056;28;20503;-84
2021/03/05 04:19:53;;;;;;;5.78;0.80;;;0.80;99.90;;;;;;5092203;28;20051;-83
2021/03/05 04:22:20;;;;;;;9.65;1.05;;;0.80;99.90;;;;;;5111650;28;20128;-83
2021/03/05 04:24:46;;;;;;;8.07;0.80;;;0.80;99.90;;;;;;5104956;28;20043;-83
2021/03/05 04:27:12;;;;;;;3.78;0.98;;;0.80;99.90;;;;;;5056514;28;20036;-83
2021/03/05 04:29:39;;;;;;;5.30;1.23;;;0.80;99.90;;;;;;5108622;28;20062;-86
2021/03/05 04:32:05;;;;;;;9.15;0.75;;;0.90;99.90;;;;;;5082060;28;20539;-83
2021/03/05 04:34:32;;;;;;;3.67;0.45;;;0.80;99.90;;;;;;5075090;28;20071;-83
2021/03/05 04:36:58;;;;;;;11.50;1.23;;;0.80;99.90;;;;;;5092573;28;20066;-83
2021/03/05 04:39:24;;;;;;;9.73;0.90;;;0.90;99.90;;;;;;5096360;28;20403;-83
2021/03/05 04:41:49;;;;;;;5.65;0.60;;;0.80;99.90;;;;;;5091932;28;20050;-83
2021/03/05 04:44:15;;;;;;;4.55;0.80;;;0.80;99.90;;;;;;5092691;28;20035;-83
2021/03/05 04:46:41;;;;;;;5.03;0.95;;;0.80;99.90;;;;;;5070845;28;20044;-83
2021/03/05 04:49:07;;;;;;;9.52;0.82;;;0.80;99.90;;;;;;5075057;28;20134;-82
2021/03/05 04:51:33;;;;;;;5.57;0.50;;;0.80;99.90;;;;;;5073533;28;20047;-83
2021/03/05 04:53:59;;;;;;;8.38;0.93;;;0.80;99.90;;;;;;5105488;28;20032;-82
2021/03/05 04:56:25;;;;;;;1.92;0.43;;;0.80;99.90;;;;;;5105885;28;20043;-82
2021/03/05 04:58:51;;;;;;;14.27;0.60;;;0.70;99.90;;;;;;5103932;28;20540;-81
2021/03/05 05:01:17;;;;;;;5.63;0.47;;;0.60;99.90;;;;;;5092002;28;20044;-83
2021/03/05 05:03:43;;;;;;;7.05;0.90;;;0.70;99.90;;;;;;5077113;28;20050;-82
2021/03/05 05:06:09;;;;;;;4.90;0.80;;;0.70;99.90;;;;;;5105743;28;20047;-82
2021/03/05 05:08:34;;;;;;;14.35;1.02;;;0.70;99.90;;;;;;5070012;28;20040;-82
2021/03/05 05:11:00;;;;;;;6.30;0.57;;;0.60;99.90;;;;;;5102845;28;20608;-82
2021/03/05 05:13:26;;;;;;;5.25;0.98;;;0.60;99.90;;;;;;5110069;28;20055;-83
2021/03/05 05:15:52;;;;;;;4.18;0.50;;;0.60;99.90;;;;;;5091366;28;20051;-82
2021/03/05 05:18:18;;;;;;;4.75;0.40;;;0.60;99.90;;;;;;5091292;28;20483;-82
2021/03/05 05:20:44;;;;;;;2.30;0.40;;;0.60;99.90;;;;;;5109467;28;20046;-82
2021/03/05 05:23:10;;;;;;;3.45;0.82;;;0.60;99.90;;;;;;5075338;28;20040;-82
2021/03/05 05:25:36;;;;;;;7.90;0.52;;;0.60;99.90;;;;;;5092319;28;20394;-83
2021/03/05 05:28:02;;;;;;;4.70;1.25;;;0.50;99.90;;;;;;5054363;28;20252;-82
2021/03/05 05:30:28;;;;;;;4.20;0.73;;;0.50;99.90;;;;;;5082726;28;20059;-82
2021/03/05 05:32:54;;;;;;;8.43;0.80;;;0.50;99.90;;;;;;5088792;28;20498;-82
2021/03/05 05:35:20;;;;;;;5.72;0.50;;;0.50;99.90;;;;;;5092104;28;20044;-82
2021/03/05 05:37:46;;;;;;;3.72;0.50;;;0.40;99.90;;;;;;5090808;28;20051;-82
2021/03/05 05:40:12;;;;;;;8.57;0.73;;;0.40;99.90;;;;;;5092095;28;20055;-82
2021/03/05 05:42:38;;;;;;;8.77;0.60;;;0.40;99.90;;;;;;5071720;28;20036;-82
2021/03/05 05:45:05;;;;;;;4.75;0.90;;;0.40;99.90;;;;;;5108281;28;20070;-82
2021/03/05 05:47:34;;;;;;;5.15;1.33;;;0.40;99.90;;;;;;5109411;28;20156;-82
2021/03/05 05:50:03;;;;;;;4.47;0.30;;;0.50;99.90;;;;;;5106684;28;20793;-82
2021/03/05 05:52:31;;;;;;;2.22;0.70;;;0.50;99.90;;;;;;5109937;28;20540;-83
2021/03/05 05:54:57;;;;;;;3.40;0.73;;;0.40;99.90;;;;;;5057718;28;20043;-85
2021/03/05 05:57:24;;;;;;;5.95;0.63;;;0.40;99.90;;;;;;5075087;28;20069;-82
2021/03/05 05:59:50;;;;;;;4.15;0.88;;;0.40;99.90;;;;;;5088206;28;20051;-83
2021/03/05 06:02:17;;;;;;;11.20;0.80;;;0.40;99.90;;;;;;5091994;28;20050;-82
2021/03/05 06:04:44;;;;;;;4.47;0.70;;;0.30;99.90;;;;;;5062174;28;20043;-86
2021/03/05 06:07:11;;;;;;;10.20;0.98;;;0.40;99.90;;;;;;5090304;28;20067;-82
2021/03/05 06:09:37;;;;;;;3.78;0.40;;;0.40;99.90;;;;;;5083966;28;20070;-83
2021/03/05 06:12:12;;;;;;;4.03;0.82;;;0.30;99.90;;;;;;5104339;28;21152;-82
2021/03/05 06:14:43;;;;;;;3.65;0.60;;;0.30;99.90;;;;;;5091573;28;20052;-82
2021/03/05 06:17:09;;;;;;;2.92;0.75;;;0.20;99.90;;;;;;5078797;28;20044;-82
2021/03/05 06:19:35;;;;;;;7.72;0.75;;;0.30;99.90;;;;;;5088343;28;20081;-82
2021/03/05 06:22:17;;;;;;;3.53;0.80;;;0.30;99.90;;;;;;5108941;28;20047;-82
2021/03/05 06:24:44;;;;;;;5.90;0.68;;;0.30;99.90;;;;;;5109334;28;20032;-82
2021/03/05 06:27:10;;;;;;;7.43;1.20;;;0.30;99.90;;;;;;5108389;28;20040;-84
2021/03/05 06:29:49;;;;;;;5.32;0.60;;;0.30;99.90;;;;;;5057055;28;20476;-82
2021/03/05 06:32:17;;;;;;;6.85;1.25;;;0.40;99.90;;;;;;5084386;28;20040;-82
2021/03/05 06:34:51;;;;;;;9.55;0.85;;;0.40;99.90;;;;;;5074815;28;20043;-82
2021/03/05 06:37:18;;;;;;;3.95;0.93;;;0.40;99.90;;;;;;5063766;28;20395;-83
2021/03/05 06:40:00;;;;;;;5.43;0.63;;;0.40;99.90;;;;;;5095085;28;20441;-82
2021/03/05 06:42:26;;;;;;;8.00;0.60;;;0.40;99.90;;;;;;5091779;28;20043;-83
2021/03/05 06:44:53;;;;;;;11.32;0.75;;;0.40;99.90;;;;;;5094605;28;20044;-83
2021/03/05 06:47:25;;;;;;;2.83;0.90;;;0.40;99.90;;;;;;5109464;28;20517;-83
2021/03/05 06:49:51;;;;;;;6.00;0.60;;;0.50;99.90;;;;;;5089525;28;20039;-82
2021/03/05 06:52:31;;;;;;;1.85;0.40;;;0.40;99.90;;;;;;5074587;28;20087;-82
2021/03/05 06:55:06;;;;;;;2.97;0.50;;;0.50;99.90;;;;;;5108319;28;20036;-83
2021/03/05 06:57:32;;;;;;;3.42;0.70;;;0.50;99.90;;;;;;5109200;28;20108;-81
2021/03/05 06:59:57;;;;;;;11.27;0.85;;;0.50;99.90;;;;;;5107441;28;20554;-81
2021/03/05 07:02:31;;;;;;;5.88;0.70;;;0.50;99.90;;;;;;5084874;28;20059;-82
2021/03/05 07:04:57;;;;;;;2.03;0.55;;;0.60;99.90;;;;;;5090100;28;20122;-83
2021/03/05 07:07:23;;;;;;;6.93;1.02;;;0.60;99.90;;;;;;5109426;28;20118;-82
2021/03/05 07:09:56;;;;;;;7.07;0.70;;;0.70;99.90;;;;;;5073419;28;20031;-85
2021/03/05 07:12:25;;;;;;;10.98;0.70;;;0.70;99.90;;;;;;5096857;28;20115;-81
2021/03/05 07:15:00;;;;;;;6.53;0.43;;;0.70;99.90;;;;;;5087249;28;20059;-87
2021/03/05 07:17:27;;;;;;;2.05;0.57;;;0.80;99.90;;;;;;5092386;28;20080;-83
2021/03/05 07:19:54;;;;;;;3.92;0.68;;;0.70;99.90;;;;;;5090406;28;20067;-83
2021/03/05 07:22:25;;;;;;;9.70;1.80;;;0.80;99.90;;;;;;5091206;28;20044;-82
2021/03/05 07:24:54;;;;;;;44.45;2.70;;;0.80;99.90;;;;;;5090790;28;20036;-86
2021/03/05 07:27:27;;;;;;;5.90;0.60;;;1.00;99.90;;;;;;5090843;28;20059;-83
2021/03/05 07:30:00;;;;;;;7.05;0.80;;;1.00;99.90;;;;;;5090347;28;20040;-82
2021/03/05 07:32:39;;;;;;;3.45;0.70;;;1.00;99.90;;;;;;5090876;28;20040;-82
2021/03/05 07:35:13;;;;;;;9.07;0.73;;;1.10;99.90;;;;;;5083874;28;20400;-84
2021/03/05 07:37:46;;;;;;;6.72;0.70;;;1.20;99.90;;;;;;5087482;28;20036;-82
2021/03/05 07:40:14;;;;;;;2.70;0.70;;;1.30;99.90;;;;;;5076923;28;20036;-82
2021/03/05 07:42:40;;;;;;;7.20;0.65;;;1.30;99.90;;;;;;5086940;28;20385;-82
2021/03/05 07:45:11;;;;;;;1.85;0.40;;;1.40;99.90;;;;;;5088403;28;20402;-82
2021/03/05 07:47:40;;;;;;;1.70;0.30;;;1.40;99.90;;;;;;5091265;28;20514;-83
2021/03/05 07:50:12;;;;;;;5.43;0.43;;;1.50;99.90;;;;;;5090314;28;20097;-82
2021/03/05 07:52:39;;;;;;;5.75;0.57;;;1.50;99.90;;;;;;5091619;28;20040;-82
2021/03/05 07:55:06;;;;;;;8.00;0.60;;;1.50;99.90;;;;;;5089605;28;20209;-82
2021/03/05 07:57:31;;;;;;;4.28;0.60;;;1.60;99.90;;;;;;5080590;28;20701;-83
2021/03/05 07:59:59;;;;;;;5.03;0.55;;;1.70;99.90;;;;;;5090494;28;20131;-83
2021/03/05 08:02:45;;;;;;;2.63;0.50;;;1.70;99.90;;;;;;5079918;28;20171;-84
2021/03/05 08:05:29;;;;;;;6.25;0.65;;;1.80;99.90;;;;;;5089429;28;20111;-83
2021/03/05 08:08:08;;;;;;;1.80;0.40;;;1.80;99.90;;;;;;5072642;28;20469;-87
2021/03/05 08:10:47;;;;;;;6.63;0.68;;;1.80;99.90;;;;;;5089668;28;20035;-82
2021/03/05 08:16:32;;;;;;;11.02;0.88;;;2.00;99.90;;;;;;5087662;28;20471;-83
2021/03/05 08:19:05;;;;;;;9.20;0.60;;;2.10;99.90;;;;;;5087662;28;20032;-84
2021/03/05 08:24:23;;;;;;;3.20;0.25;;;2.40;99.90;;;;;;5087655;28;20044;-86
2021/03/05 08:27:04;;;;;;;;;;;2.40;99.90;;;;;;5086318;28;20052;-86
2021/03/05 08:30:00;;;;;;;2.28;0.60;;;2.50;99.90;;;;;;5084977;28;19967;-87
2021/03/05 08:32:35;;;;;;;10.02;0.55;;;2.50;99.90;;;;;;5082293;28;20048;-86
2021/03/05 08:35:12;;;;;;;2.63;0.40;;;2.60;99.90;;;;;;5086627;28;20495;-90
2021/03/05 08:37:42;;;;;;;3.92;0.40;;;2.60;99.90;;;;;;5080239;28;20119;-85
2021/03/05 08:40:15;;;;;;;1.80;0.60;;;2.70;99.90;;;;;;5073156;28;20047;-86
2021/03/05 08:42:42;;;;;;;1.65;0.40;;;2.70;99.90;;;;;;5084508;28;20085;-86
2021/03/05 08:45:12;;;;;;;4.40;0.70;;;2.80;99.90;;;;;;5084409;28;20429;-86
2021/03/05 08:47:50;;;;;;;3.17;0.60;;;2.80;99.90;;;;;;5076660;28;20113;-87
2021/03/05 08:50:19;;;;;;;9.68;0.57;;;2.90;99.90;;;;;;5085597;28;20041;-86
2021/03/05 08:52:46;;;;;;;1.42;0.45;;;2.90;99.90;;;;;;5077280;28;20547;-86
2021/03/05 08:55:13;;;;;;;1.00;0.20;;;3.00;99.90;;;;;;5076900;28;20067;-86
2021/03/05 08:57:45;;;;;;;2.17;0.30;;;3.10;99.90;;;;;;5078466;28;20044;-86
2021/03/05 09:00:16;;;;;;;5.22;0.50;;;3.10;99.90;;;;;;5090810;28;20044;-87
2021/03/05 09:02:43;;;;;;;6.43;0.40;;;3.10;99.90;;;;;;5066461;28;20546;-87
2021/03/05 09:05:12;;;;;;;1.20;0.30;;;3.20;99.90;;;;;;5085433;28;20105;-86
2021/03/05 09:07:55;;;;;;;5.03;0.60;;;3.20;99.90;;;;;;5075551;28;20032;-88
2021/03/05 09:10:36;;;;;;;2.70;0.52;;;3.30;99.90;;;;;;5070620;28;20037;-86
2021/03/05 09:13:02;;;;;;;1.85;0.52;;;3.40;99.90;;;;;;5081089;28;20483;-89
2021/03/05 09:15:42;;;;;;;4.82;0.40;;;3.50;99.90;;;;;;5094577;28;20414;-86
2021/03/05 09:18:12;;;;;;;5.05;0.60;;;3.50;99.90;;;;;;5091524;28;20067;-86
2021/03/05 09:20:50;;;;;;;4.43;0.30;;;3.50;99.90;;;;;;5067524;28;20476;-87
2021/03/05 09:23:34;;;;;;;3.60;0.88;;;3.60;99.90;;;;;;5079469;28;20044;-86
2021/03/05 09:26:05;;;;;;;2.97;0.50;;;3.60;99.90;;;;;;5084843;28;20042;-90
2021/03/05 09:28:49;;;;;;;2.88;0.30;;;3.60;99.90;;;;;;5106681;28;20040;-86
2021/03/05 09:31:24;;;;;;;1.27;0.50;;;3.60;99.90;;;;;;5108414;28;20040;-86
2021/03/05 09:33:49;;;;;;;1.65;0.40;;;3.70;99.90;;;;;;5102765;28;20071;-86
2021/03/05 09:36:17;;;;;;;1.45;0.38;;;3.70;99.90;;;;;;5083190;28;20497;-85
2021/03/05 09:38:45;;;;;;;7.63;0.50;;;3.70;99.90;;;;;;5109548;28;20031;-86
2021/03/05 09:41:12;;;;;;;0.40;0.32;;;3.70;98.80;;;;;;5092285;28;20044;-85
2021/03/05 09:43:38;;;;;;;3.47;0.50;;;3.70;99.50;;;;;;5084501;28;20039;-87
2021/03/05 09:46:27;;;;;;;3.17;0.47;;;3.80;99.90;;;;;;5102417;28;20054;-88
2021/03/05 09:48:54;;;;;;;2.70;0.70;;;3.90;99.90;;;;;;5084383;28;20460;-86
2021/03/05 09:51:21;;;;;;;0.80;0.30;;;4.00;99.90;;;;;;5073099;28;20565;-85
2021/03/05 09:53:54;;;;;;;2.42;0.40;;;4.00;99.10;;;;;;5071836;28;20497;-85
2021/03/05 09:56:23;;;;;;;1.92;0.40;;;4.00;99.30;;;;;;5083522;28;20028;-84
2021/03/05 09:58:58;;;;;;;3.63;0.40;;;4.00;99.90;;;;;;5073120;28;20130;-85
2021/03/05 10:01:25;;;;;;;1.90;0.40;;;4.00;99.90;;;;;;5082925;28;20035;-86
2021/03/05 10:03:58;;;;;;;1.25;0.55;;;4.10;97.80;;;;;;5070248;28;20036;-84
2021/03/05 10:06:30;;;;;;;0.95;0.30;;;4.10;97.60;;;;;;5102559;28;20180;-85
2021/03/05 10:09:07;;;;;;;6.70;0.50;;;4.10;96.30;;;;;;5073356;28;20049;-85
2021/03/05 10:11:35;;;;;;;1.63;0.20;;;4.10;96.10;;;;;;5090218;28;20044;-84
2021/03/05 10:14:07;;;;;;;3.28;0.30;;;4.20;95.70;;;;;;5084375;28;20085;-88
2021/03/05 10:16:37;;;;;;;4.15;0.10;;;4.20;97.90;;;;;;5107384;28;20415;-85
2021/03/05 10:19:18;;;;;;;0.82;0.28;;;4.30;98.60;;;;;;5083306;28;20554;-88
2021/03/05 10:21:46;;;;;;;2.83;0.30;;;4.30;96.10;;;;;;5092537;28;20043;-85
2021/03/05 10:24:31;;;;;;;4.60;0.60;;;4.40;97.90;;;;;;5069103;28;20043;-85
2021/03/05 10:27:11;;;;;;;1.38;0.30;;;4.40;97.30;;;;;;5105033;28;20480;-85
2021/03/05 10:29:52;;;;;;;4.38;0.57;;;4.40;94.60;;;;;;5099701;28;20040;-85
2021/03/05 10:32:28;;;;;;;0.85;0.35;;;4.40;97.70;;;;;;5077861;28;20556;-85
2021/03/05 10:35:00;;;;;;;2.97;0.40;;;4.60;99.30;;;;;;5089022;28;20050;-85
2021/03/05 10:37:27;;;;;;;2.13;0.55;;;4.60;97.10;;;;;;5073375;28;20036;-85
2021/03/05 10:39:53;;;;;;;6.55;1.17;;;4.70;98.80;;;;;;5087800;28;20111;-85
2021/03/05 10:42:21;;;;;;;5.10;0.50;;;4.90;98.90;;;;;;5070018;28;20046;-85
2021/03/05 10:44:48;;;;;;;3.90;0.35;;;4.80;97.40;;;;;;5077916;28;20075;-85
2021/03/05 10:47:16;;;;;;;2.47;0.38;;;4.80;96.80;;;;;;5073995;28;20051;-85
2021/03/05 10:49:44;;;;;;;5.18;0.22;;;4.80;99.30;;;;;;5079182;28;20470;-86
2021/03/05 10:52:12;;;;;;;7.65;0.68;;;4.80;99.00;;;;;;5104640;28;20497;-86
2021/03/05 10:54:40;;;;;;;3.63;0.55;;;4.80;99.10;;;;;;5113359;28;20490;-85
2021/03/05 10:57:11;;;;;;;4.20;0.70;;;4.80;99.10;;;;;;5106780;28;20116;-87
2021/03/05 10:59:37;;;;;;;3.42;1.20;;;4.80;99.90;;;;;;5074903;28;20036;-85
2021/03/05 11:02:03;;;;;;;6.50;0.70;;;5.00;99.90;;;;;;5103416;28;20517;-85
2021/03/05 11:04:30;;;;;;;2.55;0.38;;;5.00;99.50;;;;;;5065549;28;20048;-85
2021/03/05 11:06:55;;;;;;;4.32;0.52;;;5.00;99.40;;;;;;5074235;28;20044;-85
2021/03/05 11:09:25;;;;;;;4.22;0.65;;;5.00;98.90;;;;;;5078459;28;20047;-85
2021/03/05 11:11:51;;;;;;;4.85;0.57;;;5.00;99.50;;;;;;5104232;28;20047;-85
2021/03/05 11:14:17;;;;;;;3.08;0.75;;;5.10;99.90;;;;;;5090167;28;20056;-84
2021/03/05 11:16:43;;;;;;;1.30;0.30;;;5.00;99.40;;;;;;5102414;28;20035;-85
2021/03/05 11:19:09;;;;;;;8.00;0.73;;;5.20;99.30;;;;;;5060675;28;20407;-88
2021/03/05 11:21:35;;;;;;;7.13;0.80;;;5.10;99.90;;;;;;5080800;28;20044;-85
2021/03/05 11:24:00;;;;;;;0.20;0.08;;;5.20;99.90;;;;;;5092522;28;20040;-84
2021/03/05 11:26:26;;;;;;;2.90;0.63;;;5.20;99.90;;;;;;5073755;28;20521;-85
2021/03/05 11:28:53;;;;;;;6.70;0.70;;;5.20;99.90;;;;;;5084909;28;20498;-85
2021/03/05 11:31:19;;;;;;;5.07;0.93;;;5.30;99.90;;;;;;5054756;28;20040;-85
2021/03/05 11:33:45;;;;;;;4.35;0.77;;;5.30;99.90;;;;;;5080226;28;20103;-86
2021/03/05 11:36:16;;;;;;;2.65;0.80;;;5.30;99.50;;;;;;5078507;28;20479;-89
2021/03/05 11:38:45;;;;;;;5.10;0.70;;;5.30;99.30;;;;;;5076113;28;20029;-86
2021/03/05 11:41:12;;;;;;;2.33;0.40;;;5.40;99.90;;;;;;5082862;28;20047;-87
2021/03/05 11:43:43;;;;;;;2.08;0.30;;;5.40;99.90;;;;;;5093843;28;20043;-85
2021/03/05 11:46:10;;;;;;;2.50;0.60;;;5.40;99.70;;;;;;5098468;28;20540;-86
2021/03/05 11:48:35;;;;;;;13.05;1.02;;;5.60;99.90;;;;;;5062855;28;20039;-85
2021/03/05 11:51:02;;;;;;;1.73;0.30;;;5.40;99.90;;;;;;5109478;28;20040;-85
2021/03/05 11:53:27;;;;;;;3.13;0.50;;;5.40;99.90;;;;;;5090214;28;20046;-84
2021/03/05 11:55:53;;;;;;;5.72;0.65;;;5.40;99.90;;;;;;5072344;28;20126;-85
2021/03/05 11:58:19;;;;;;;1.33;0.43;;;5.40;99.10;;;;;;5071085;28;20085;-86
2021/03/05 12:00:46;;;;;;;4.78;0.63;;;5.30;99.90;;;;;;5092999;28;20582;-87
2021/03/05 12:03:12;;;;;;;12.05;0.82;;;5.40;99.90;;;;;;5112030;28;20066;-88
2021/03/05 12:05:38;;;;;;;5.63;0.40;;;5.40;99.90;;;;;;5082316;28;20071;-87
2021/03/05 12:08:04;;;;;;;10.65;0.57;;;5.40;99.90;;;;;;5086837;28;20115;-85
2021/03/05 12:10:35;;;;;;;2.75;0.52;;;5.30;99.50;;;;;;5075435;28;20276;-86
2021/03/05 12:13:01;;;;;;;3.97;0.45;;;5.30;99.90;;;;;;5052013;28;20495;-85
2021/03/05 12:15:27;;;;;;;7.75;0.73;;;5.30;99.90;;;;;;5070004;28;20555;-85
2021/03/05 12:17:52;;;;;;;4.78;0.63;;;5.30;99.90;;;;;;5100794;28;20501;-85
2021/03/05 12:20:18;;;;;;;5.53;0.50;;;5.40;99.90;;;;;;5104348;28;20063;-87
2021/03/05 12:22:44;;;;;;;4.57;0.68;;;5.40;99.90;;;;;;5079630;28;20395;-85
2021/03/05 12:25:30;;;;;;;3.25;0.50;;;5.40;99.90;;;;;;5061479;28;20052;-86
2021/03/05 12:28:16;;;;;;;5.72;0.80;;;5.40;99.90;;;;;;5051873;28;20104;-90
2021/03/05 12:31:02;;;;;;;13.68;1.17;;;5.40;99.90;;;;;;5058340;28;20146;-87
2021/03/05 12:33:49;;;;;;;10.45;1.10;;;5.50;99.90;;;;;;5058404;28;20062;-86
2021/03/05 12:36:35;;;;;;;5.22;0.70;;;5.60;99.90;;;;;;5061299;28;20622;-85
2021/03/05 12:39:21;;;;;;;5.60;0.95;;;5.70;99.90;;;;;;5064783;28;20051;-86
2021/03/05 12:41:51;;;;;;;9.35;1.10;;;5.70;99.90;;;;;;5091221;28;20038;-86
2021/03/05 12:44:17;;;;;;;13.23;1.08;;;5.70;99.90;;;;;;5069349;28;20063;-88
2021/03/05 12:46:43;;;;;;;12.23;1.00;;;5.60;99.90;;;;;;5086532;28;20525;-85
2021/03/05 12:49:09;;;;;;;4.68;0.50;;;5.60;99.90;;;;;;5071288;28;20173;-85
2021/03/05 12:51:34;;;;;;;3.08;1.00;;;5.70;99.90;;;;;;5078127;28;20048;-86
2021/03/05 12:54:00;;;;;;;9.50;0.70;;;5.70;99.90;;;;;;5041276;28;20536;-85
2021/03/05 12:56:26;;;;;;;13.30;0.82;;;5.70;99.90;;;;;;5064441;28;20479;-86
2021/03/05 12:58:52;;;;;;;4.15;0.68;;;5.80;99.90;;;;;;5090531;28;20039;-85
2021/03/05 13:01:19;;;;;;;4.30;0.80;;;5.80;99.90;;;;;;5080520;28;20047;-88
2021/03/05 13:03:45;;;;;;;9.18;0.70;;;5.80;99.90;;;;;;5071729;28;20040;-87
2021/03/05 13:06:11;;;;;;;11.25;1.05;;;5.80;99.90;;;;;;5088343;28;20051;-85
2021/03/05 13:08:38;;;;;;;4.15;0.52;;;5.90;99.90;;;;;;5056771;28;20078;-86
2021/03/05 13:11:04;;;;;;;9.73;0.68;;;5.90;99.90;;;;;;5109849;28;20051;-85
2021/03/05 13:13:30;;;;;;;2.53;0.60;;;6.00;99.90;;;;;;5070639;28;20043;-85